Time;durP1;ratioP1;P1;durP2;ratioP2;P2;SDS_P1;SDS_P2;PMS_P1;PMS_P2;Temp;Humidity;BMP_temperature;BMP_pressure;BME280_temperature;BME280_humidity;BME280_pressure;Samples;Min_cycle;Max_cycle;Signal;HPM_P1;HPM_P2
2022/01/12 19:56:21;;;;;;;7.35;2.53;;;;;;;20.60;56.96;103125.31;5049541;27;20786;-68
2022/01/12 19:59:04;;;;;;;5.45;2.15;;;;;;;21.14;55.29;103123.44;5009701;28;20050;-73
2022/01/12 20:01:32;;;;;;;4.68;2.15;;;;;;;21.24;54.57;103118.31;5008699;28;20030;-77
2022/01/12 20:04:09;;;;;;;10.10;2.50;;;;;;;21.10;54.65;103119.28;4986632;28;20031;-74
2022/01/12 20:06:34;;;;;;;5.38;1.73;;;;;;;21.66;53.68;103121.56;4970946;28;20035;-71
2022/01/12 20:09:21;;;;;;;6.95;2.38;;;;;;;21.94;52.82;103121.28;4989719;28;20027;-70
2022/01/12 20:11:48;;;;;;;6.30;1.73;;;;;;;22.11;52.38;103122.69;4975249;28;20035;-76
2022/01/12 20:14:14;;;;;;;4.63;1.63;;;;;;;22.13;52.25;103117.22;4971337;28;20054;-72
2022/01/12 20:16:46;;;;;;;4.93;1.67;;;;;;;21.67;53.16;103120.63;4986670;28;20047;-72
2022/01/12 20:22:01;;;;;;;3.97;1.80;;;;;;;22.06;52.92;103115.97;4983029;28;20053;-68
2022/01/12 20:24:27;;;;;;;6.30;1.95;;;;;;;22.37;52.28;103115.44;4989727;28;20035;-69
2022/01/12 20:27:06;;;;;;;4.25;1.67;;;;;;;22.07;52.79;103123.88;5000072;28;20034;-66
2022/01/12 20:29:41;;;;;;;3.80;1.90;;;;;;;22.51;51.95;103111.72;4999060;28;20420;-67
2022/01/12 20:32:07;;;;;;;4.03;1.67;;;;;;;22.45;52.05;103109.47;5000522;28;20034;-67
2022/01/12 20:34:37;;;;;;;5.10;1.48;;;;;;;22.64;51.65;103116.97;5008012;28;20064;-66
2022/01/12 20:37:02;;;;;;;8.35;2.88;;;;;;;22.65;51.49;103117.81;5003897;28;20042;-65
2022/01/12 20:39:28;;;;;;;3.97;1.40;;;;;;;22.61;51.39;103113.66;4989120;28;20104;-65
2022/01/12 20:41:54;;;;;;;3.83;1.40;;;;;;;22.25;52.36;103118.16;4997928;28;20034;-69
2022/01/12 20:44:20;;;;;;;3.35;1.65;;;;;;;22.12;52.37;103116.38;5008733;28;20476;-69
2022/01/12 20:46:46;;;;;;;4.97;1.90;;;;;;;21.85;52.98;103118.44;5001036;28;20436;-70
2022/01/12 20:49:11;;;;;;;7.03;2.15;;;;;;;21.95;52.86;103124.81;4990104;28;20433;-67
2022/01/12 20:51:42;;;;;;;4.13;1.40;;;;;;;21.89;52.61;103119.91;4988685;28;20041;-73
2022/01/12 20:54:09;;;;;;;9.23;2.15;;;;;;;21.91;52.20;103120.66;4988811;28;20477;-72
2022/01/12 20:56:34;;;;;;;5.70;1.63;;;;;;;21.77;52.42;103122.50;5004132;28;20060;-72
2022/01/12 20:59:00;;;;;;;6.18;1.70;;;;;;;22.35;51.28;103128.09;4999721;28;20113;-67
2022/01/12 21:01:25;;;;;;;7.25;1.40;;;;;;;22.07;51.26;103131.06;4992393;28;20385;-71
2022/01/12 21:03:51;;;;;;;5.60;1.63;;;;;;;22.43;51.03;103132.84;4986591;28;20477;-67
2022/01/12 21:06:17;;;;;;;5.57;1.67;;;;;;;22.80;50.35;103127.34;4989803;28;20114;-75
2022/01/12 21:08:43;;;;;;;6.65;1.80;;;;;;;22.76;50.71;103133.94;4985515;28;20077;-78
2022/01/12 21:11:09;;;;;;;6.57;1.58;;;;;;;22.96;50.01;103133.22;4987051;28;20027;-72
2022/01/12 21:13:36;;;;;;;5.38;2.10;;;;;;;22.29;51.51;103139.22;4978347;28;20122;-72
2022/01/12 21:16:02;;;;;;;4.97;1.30;;;;;;;21.93;52.38;103134.75;4974804;28;20035;-68
2022/01/12 21:18:28;;;;;;;4.00;1.23;;;;;;;22.04;52.29;103134.84;4983748;28;20030;-71
2022/01/12 21:20:54;;;;;;;4.22;1.27;;;;;;;22.04;51.99;103125.94;4977390;28;20370;-66
2022/01/12 21:23:24;;;;;;;2.10;1.00;;;;;;;22.02;51.86;103134.09;4967331;28;20054;-62
2022/01/12 21:25:50;;;;;;;4.90;1.25;;;;;;;22.07;51.73;103144.44;4975242;28;20058;-73
2022/01/12 21:28:17;;;;;;;8.35;1.27;;;;;;;21.83;52.10;103141.75;4982301;28;20072;-74
2022/01/12 21:30:42;;;;;;;3.42;1.10;;;;;;;21.98;51.90;103141.50;4988196;28;20082;-67
2022/01/12 21:33:08;;;;;;;3.35;1.20;;;;;;;21.71;52.25;103147.03;4977561;28;20425;-73
2022/01/12 21:35:35;;;;;;;3.85;1.05;;;;;;;21.85;51.60;103137.16;4974224;28;20027;-74
2022/01/12 21:38:09;;;;;;;4.07;1.02;;;;;;;21.87;51.52;103132.53;4975186;28;20175;-69
2022/01/12 21:40:43;;;;;;;5.47;0.93;;;;;;;21.85;51.66;103134.47;4974908;28;20050;-69
2022/01/12 21:43:11;;;;;;;4.07;1.17;;;;;;;21.78;51.45;103142.94;4994693;28;20038;-68
2022/01/12 21:45:38;;;;;;;3.95;1.40;;;;;;;21.55;52.13;103146.41;4977662;28;20101;-67
2022/01/12 21:48:06;;;;;;;1.75;0.90;;;;;;;21.48;52.27;103153.16;4974231;28;20105;-76
2022/01/12 21:50:32;;;;;;;2.85;1.48;;;;;;;21.63;51.91;103152.06;4973752;28;20059;-67
2022/01/12 21:52:57;;;;;;;2.47;1.25;;;;;;;21.30;52.63;103153.47;4979627;28;20055;-72
2022/01/12 21:55:22;;;;;;;2.22;0.82;;;;;;;21.58;52.08;103148.84;4973972;28;20030;-75
2022/01/12 21:57:48;;;;;;;7.10;1.33;;;;;;;21.38;52.31;103144.91;4974371;28;20452;-73
2022/01/12 22:00:15;;;;;;;1.88;1.10;;;;;;;21.64;51.65;103148.41;4974110;28;20037;-73
2022/01/12 22:02:41;;;;;;;2.40;0.82;;;;;;;21.74;51.19;103144.13;4973677;28;20098;-72
2022/01/12 22:05:07;;;;;;;1.77;0.98;;;;;;;21.64;51.26;103145.75;4974518;28;20043;-67
2022/01/12 22:07:33;;;;;;;3.28;0.70;;;;;;;21.79;51.09;103138.44;4972140;28;20033;-66
2022/01/12 22:10:00;;;;;;;2.47;0.80;;;;;;;21.59;51.46;103138.06;4973809;28;20018;-71
2022/01/12 22:12:25;;;;;;;6.57;1.25;;;;;;;21.62;51.22;103136.13;4974392;28;20149;-67
2022/01/12 22:14:51;;;;;;;8.23;1.08;;;;;;;21.50;51.78;103145.88;4978610;28;20022;-72
2022/01/12 22:17:16;;;;;;;5.63;1.00;;;;;;;21.38;51.24;103145.75;4982316;28;20039;-67
2022/01/12 22:19:43;;;;;;;6.28;1.10;;;;;;;21.22;51.34;103142.47;4982876;28;20058;-67
2022/01/12 22:22:16;;;;;;;3.75;1.10;;;;;;;21.06;51.33;103148.00;4973422;28;20031;-67
2022/01/12 22:24:41;;;;;;;4.32;1.13;;;;;;;21.02;51.45;103145.66;4985417;28;20037;-67
2022/01/12 22:27:07;;;;;;;4.25;1.13;;;;;;;20.94;51.15;103154.22;4974230;28;20019;-66
2022/01/12 22:29:33;;;;;;;10.35;1.05;;;;;;;21.03;50.90;103152.72;4975904;28;20444;-69
2022/01/12 22:31:58;;;;;;;5.80;1.40;;;;;;;20.95;50.81;103155.91;4993075;28;20477;-71
2022/01/12 22:34:24;;;;;;;1.65;1.05;;;;;;;20.96;50.98;103155.81;4992194;28;20089;-69
2022/01/12 22:36:50;;;;;;;3.78;1.23;;;;;;;20.88;50.73;103152.81;4991492;28;20088;-65
2022/01/12 22:39:15;;;;;;;3.28;0.90;;;;;;;20.94;50.91;103152.38;4973564;28;20027;-65
2022/01/12 22:41:41;;;;;;;2.25;1.08;;;;;;;21.08;50.65;103145.25;4973413;28;20035;-63
2022/01/12 22:44:06;;;;;;;3.45;1.05;;;;;;;21.12;50.51;103136.91;4974391;28;20050;-63
2022/01/12 22:46:32;;;;;;;4.75;0.80;;;;;;;21.15;50.61;103139.38;4973863;28;20377;-62
2022/01/12 22:48:57;;;;;;;2.75;1.33;;;;;;;21.28;50.39;103141.16;4973952;28;20039;-62
2022/01/12 22:51:23;;;;;;;2.22;0.70;;;;;;;21.32;50.42;103138.16;4973837;28;20105;-62
2022/01/12 22:53:49;;;;;;;3.78;1.00;;;;;;;21.35;50.38;103137.13;4973885;28;20050;-62
2022/01/12 22:56:22;;;;;;;2.50;1.10;;;;;;;21.08;51.23;103147.91;4973799;28;20034;-61
2022/01/12 22:58:49;;;;;;;2.10;0.88;;;;;;;21.07;51.09;103148.84;4973972;28;20057;-61
2022/01/12 23:01:16;;;;;;;1.75;1.13;;;;;;;21.33;50.51;103139.03;4973800;28;20030;-61
2022/01/12 23:03:43;;;;;;;1.55;0.90;;;;;;;21.32;50.46;103138.16;4973697;28;20594;-61
2022/01/12 23:06:10;;;;;;;2.92;1.10;;;;;;;21.35;50.37;103143.31;4973699;28;20026;-61
2022/01/12 23:08:37;;;;;;;2.92;1.20;;;;;;;21.26;50.46;103143.94;4973711;28;20031;-62
2022/01/12 23:11:02;;;;;;;3.33;0.93;;;;;;;21.38;50.07;103143.06;4973613;28;20030;-62
2022/01/12 23:13:28;;;;;;;3.30;0.80;;;;;;;21.42;49.93;103148.22;4972306;28;20362;-62
2022/01/12 23:15:53;;;;;;;3.60;0.85;;;;;;;21.47;49.98;103140.78;4973502;28;20030;-61
2022/01/12 23:18:19;;;;;;;2.50;0.80;;;;;;;21.44;49.94;103140.97;4973629;28;20030;-61
2022/01/12 23:20:44;;;;;;;3.67;1.13;;;;;;;21.36;50.15;103139.66;4973413;28;20034;-61
2022/01/12 23:23:09;;;;;;;2.33;0.90;;;;;;;21.34;50.05;103133.56;4973398;28;20031;-62
2022/01/12 23:25:35;;;;;;;2.08;1.20;;;;;;;21.36;49.94;103134.31;4973476;28;20038;-61
2022/01/12 23:28:00;;;;;;;2.53;1.13;;;;;;;21.27;50.12;103137.66;4973316;28;20031;-61
2022/01/12 23:30:27;;;;;;;2.67;1.02;;;;;;;21.28;49.98;103134.00;4972683;28;20105;-62
2022/01/12 23:32:55;;;;;;;3.80;1.00;;;;;;;21.22;50.09;103130.91;4971837;28;20029;-61
2022/01/12 23:43:30;;;;;;;2.83;0.77;;;;;;;20.83;50.63;103133.56;4973066;28;20388;-61
2022/01/12 23:48:44;;;;;;;2.60;0.95;;;;;;;21.08;49.85;103137.22;4973428;28;20045;-61
2022/01/12 23:58:45;;;;;;;3.70;0.95;;;;;;;20.70;50.97;103130.03;4973266;28;20019;-61
